Time;durP1;ratioP1;P1;durP2;ratioP2;P2;SDS_P1;SDS_P2;PMS_P1;PMS_P2;Temp;Humidity;BMP_temperature;BMP_pressure;BME280_temperature;BME280_humidity;BME280_pressure;Samples;Min_cycle;Max_cycle;Signal;HPM_P1;HPM_P2
2022/04/25 00:00:14;;;;;;;12.27;3.75;;;8.90;99.90;;;;;;4879607;29;20044;-77
2022/04/25 00:02:41;;;;;;;10.63;4.10;;;8.90;99.90;;;;;;4863157;29;20064;-77
2022/04/25 00:05:07;;;;;;;9.55;3.53;;;8.90;99.90;;;;;;4863889;29;20053;-77
2022/04/25 00:07:33;;;;;;;9.77;3.92;;;8.90;99.90;;;;;;4883326;29;20044;-77
2022/04/25 00:09:58;;;;;;;11.38;4.00;;;8.80;99.90;;;;;;4883292;29;20044;-77
2022/04/25 00:12:24;;;;;;;9.95;4.30;;;8.90;99.90;;;;;;4883149;29;20451;-77
2022/04/25 00:14:50;;;;;;;16.00;5.00;;;8.90;99.90;;;;;;4883178;29;20477;-77
2022/04/25 00:17:16;;;;;;;13.70;4.05;;;8.80;99.90;;;;;;4883226;29;20109;-77
2022/04/25 00:19:41;;;;;;;10.50;3.70;;;8.90;99.90;;;;;;4883157;29;20045;-77
2022/04/25 00:22:07;;;;;;;11.02;3.92;;;8.80;99.90;;;;;;4883116;29;20401;-77
2022/04/25 00:24:32;;;;;;;12.15;3.45;;;8.90;99.90;;;;;;4883118;29;20048;-77
2022/04/25 00:26:58;;;;;;;11.45;4.18;;;8.80;99.90;;;;;;4866224;29;20056;-77
2022/04/25 00:29:24;;;;;;;10.98;4.15;;;8.80;99.90;;;;;;4882996;29;20045;-77
2022/04/25 00:31:49;;;;;;;10.10;3.30;;;8.80;99.90;;;;;;4866172;29;20053;-77
2022/04/25 00:34:15;;;;;;;10.82;4.75;;;8.80;99.90;;;;;;4882900;29;20049;-77
2022/04/25 00:36:40;;;;;;;9.07;3.88;;;8.80;99.90;;;;;;4866203;29;20049;-77
2022/04/25 00:39:06;;;;;;;9.88;3.95;;;8.80;99.90;;;;;;4865989;29;20137;-77
2022/04/25 00:41:33;;;;;;;7.30;3.70;;;8.80;99.90;;;;;;4865988;29;20558;-77
2022/04/25 00:43:58;;;;;;;13.02;4.85;;;8.80;99.90;;;;;;4865831;29;20061;-77
2022/04/25 00:46:26;;;;;;;10.15;4.10;;;8.80;99.90;;;;;;4866250;29;20060;-77
2022/04/25 00:48:52;;;;;;;15.90;4.22;;;8.80;99.90;;;;;;4882475;29;20055;-77
2022/04/25 00:51:18;;;;;;;10.70;3.28;;;8.70;99.90;;;;;;4865837;29;20095;-77
2022/04/25 00:53:45;;;;;;;8.57;4.05;;;8.80;99.90;;;;;;4865939;29;20052;-77
2022/04/25 00:56:14;;;;;;;11.15;3.75;;;8.80;99.90;;;;;;4882758;29;20049;-77
2022/04/25 00:58:41;;;;;;;16.92;5.70;;;8.80;99.90;;;;;;4865670;29;20486;-77
2022/04/25 01:01:06;;;;;;;8.13;4.50;;;8.80;99.90;;;;;;4865681;29;20060;-77
2022/04/25 01:03:33;;;;;;;9.20;4.15;;;8.80;99.90;;;;;;4866005;29;20041;-77
2022/04/25 01:05:58;;;;;;;12.23;3.95;;;8.80;99.90;;;;;;4865871;29;20486;-77
2022/04/25 01:08:26;;;;;;;13.73;4.25;;;8.80;99.90;;;;;;4882105;29;20184;-77
2022/04/25 01:10:52;;;;;;;7.03;3.20;;;8.80;99.90;;;;;;4882510;29;20478;-77
2022/04/25 01:13:18;;;;;;;7.95;3.95;;;8.80;99.90;;;;;;4865678;29;20155;-77
2022/04/25 01:15:43;;;;;;;10.38;4.07;;;8.80;99.90;;;;;;4881967;29;20516;-77
2022/04/25 01:18:09;;;;;;;10.93;5.22;;;8.70;99.90;;;;;;4865483;29;20041;-77
2022/04/25 01:20:35;;;;;;;11.77;4.82;;;8.60;99.90;;;;;;4882050;29;20053;-77
2022/04/25 01:27:15;;;;;;;10.00;4.50;;;8.70;99.90;;;;;;4882078;29;20045;-76
2022/04/25 01:28:34;;;;;;;9.13;4.65;;;8.60;99.90;;;;;;4882048;29;20049;-77
2022/04/25 01:31:00;;;;;;;13.25;5.00;;;8.60;99.90;;;;;;4864881;29;20132;-76
2022/04/25 01:33:26;;;;;;;11.57;4.78;;;8.60;99.90;;;;;;4865077;29;20125;-76
2022/04/25 01:35:51;;;;;;;7.90;4.20;;;8.60;99.90;;;;;;4881893;29;20053;-76
2022/04/25 01:38:17;;;;;;;11.07;4.85;;;8.60;99.90;;;;;;4865289;29;20084;-76
2022/04/25 01:40:43;;;;;;;9.65;4.75;;;8.60;99.90;;;;;;4881783;29;20068;-76
2022/04/25 01:43:08;;;;;;;9.48;5.13;;;8.60;99.90;;;;;;4881508;29;20061;-77
2022/04/25 01:45:34;;;;;;;12.18;5.30;;;8.60;99.90;;;;;;4865004;29;20109;-76
2022/04/25 01:47:59;;;;;;;12.45;4.88;;;8.60;99.90;;;;;;4881644;29;20060;-76
2022/04/25 01:50:25;;;;;;;11.20;4.93;;;8.60;99.90;;;;;;4881527;29;20044;-77
2022/04/25 01:52:51;;;;;;;13.18;5.35;;;8.50;99.90;;;;;;4865002;29;20045;-76
2022/04/25 01:55:17;;;;;;;10.32;5.63;;;8.50;99.90;;;;;;4881593;29;20387;-77
2022/04/25 01:57:43;;;;;;;12.90;5.80;;;8.50;99.90;;;;;;4864806;29;20049;-76
2022/04/25 02:00:09;;;;;;;12.18;4.88;;;8.50;99.90;;;;;;4881161;29;20081;-76
2022/04/25 02:02:35;;;;;;;11.20;5.07;;;8.50;99.90;;;;;;4864472;29;20041;-77
2022/04/25 02:05:01;;;;;;;11.75;4.78;;;8.50;99.90;;;;;;4881365;29;20064;-77
2022/04/25 02:07:27;;;;;;;9.27;4.30;;;8.40;99.90;;;;;;4881340;29;20036;-77
2022/04/25 02:09:52;;;;;;;9.85;4.65;;;8.40;99.90;;;;;;4881297;29;20128;-77
2022/04/25 02:12:20;;;;;;;11.80;4.38;;;8.40;99.90;;;;;;4881105;29;20482;-77
2022/04/25 02:14:46;;;;;;;13.18;5.05;;;8.40;99.90;;;;;;4881102;29;20052;-77
2022/04/25 02:17:13;;;;;;;12.13;4.90;;;8.40;99.90;;;;;;4881122;29;20124;-77
2022/04/25 02:19:40;;;;;;;12.50;4.75;;;8.50;99.90;;;;;;4881087;29;20045;-76
2022/04/25 02:22:07;;;;;;;11.98;5.40;;;8.40;99.90;;;;;;4881058;29;20044;-76
2022/04/25 02:24:32;;;;;;;11.63;4.57;;;8.40;99.90;;;;;;4880908;29;20490;-77
2022/04/25 02:26:58;;;;;;;13.98;4.80;;;8.40;99.90;;;;;;4864174;29;20060;-77
2022/04/25 02:29:25;;;;;;;10.50;4.07;;;8.50;99.90;;;;;;4880338;29;20053;-77
2022/04/25 02:31:51;;;;;;;12.18;5.05;;;8.50;99.90;;;;;;4864053;29;20049;-77
2022/04/25 02:34:17;;;;;;;10.85;5.53;;;8.50;99.90;;;;;;4864033;29;20500;-76
2022/04/25 02:36:43;;;;;;;12.82;4.80;;;8.50;99.90;;;;;;4880780;29;20086;-77
2022/04/25 02:39:08;;;;;;;9.95;4.82;;;8.50;99.90;;;;;;4864376;29;20139;-77
2022/04/25 02:41:34;;;;;;;8.93;4.70;;;8.50;99.90;;;;;;4863956;29;20060;-77
2022/04/25 02:44:00;;;;;;;9.80;4.53;;;8.50;99.90;;;;;;4880343;29;20060;-77
2022/04/25 02:46:25;;;;;;;10.00;4.25;;;8.50;99.90;;;;;;4863810;29;20076;-77
2022/04/25 02:48:51;;;;;;;10.77;4.47;;;8.50;99.90;;;;;;4863825;29;20085;-76
2022/04/25 02:51:17;;;;;;;8.48;4.43;;;8.50;99.90;;;;;;4863768;29;20059;-76
2022/04/25 02:53:43;;;;;;;9.68;5.18;;;8.50;99.90;;;;;;4880646;29;20098;-77
2022/04/25 02:56:10;;;;;;;7.90;4.70;;;8.50;99.90;;;;;;4880441;29;20053;-77
2022/04/25 02:58:38;;;;;;;10.23;4.50;;;8.50;99.90;;;;;;4880139;29;20393;-77
2022/04/25 03:01:04;;;;;;;9.48;5.00;;;8.50;99.90;;;;;;4863504;29;20405;-77
2022/04/25 03:03:34;;;;;;;9.18;4.80;;;8.50;99.90;;;;;;4863816;29;20045;-77
2022/04/25 03:06:01;;;;;;;8.00;4.78;;;8.50;99.90;;;;;;4863718;29;20057;-76
2022/04/25 03:08:28;;;;;;;10.18;5.03;;;8.50;99.90;;;;;;4880288;29;20037;-76
2022/04/25 03:10:54;;;;;;;14.02;5.18;;;8.50;99.90;;;;;;4880057;29;20059;-76
2022/04/25 03:13:21;;;;;;;8.20;4.68;;;8.50;99.90;;;;;;4880149;29;20045;-76
2022/04/25 03:15:47;;;;;;;9.48;5.03;;;8.40;99.90;;;;;;4880182;29;20045;-76
2022/04/25 03:18:15;;;;;;;11.20;5.28;;;8.40;99.90;;;;;;4880144;29;20063;-76
2022/04/25 03:20:48;;;;;;;12.43;5.28;;;8.40;99.90;;;;;;4863144;29;20059;-77
2022/04/25 03:23:18;;;;;;;10.25;4.50;;;8.40;99.90;;;;;;4880130;29;20049;-77
2022/04/25 03:25:45;;;;;;;9.68;4.90;;;8.40;99.90;;;;;;4863473;29;20049;-76
2022/04/25 03:28:11;;;;;;;10.38;4.95;;;8.40;99.90;;;;;;4863183;29;20059;-76
2022/04/25 03:30:37;;;;;;;11.68;5.05;;;8.40;99.90;;;;;;4863256;29;20053;-76
2022/04/25 03:33:03;;;;;;;17.98;5.57;;;8.40;99.90;;;;;;4879960;29;20132;-76
2022/04/25 03:35:30;;;;;;;14.38;6.63;;;8.40;99.90;;;;;;4880011;29;20091;-76
2022/04/25 03:37:57;;;;;;;11.10;5.32;;;8.40;99.90;;;;;;4879844;29;20052;-77
2022/04/25 03:40:24;;;;;;;11.13;5.20;;;8.40;99.90;;;;;;4879034;29;20101;-76
2022/04/25 03:42:49;;;;;;;10.43;5.38;;;8.40;99.90;;;;;;4880189;29;20106;-76
2022/04/25 03:45:17;;;;;;;9.73;4.93;;;8.30;99.90;;;;;;4879841;29;20057;-76
2022/04/25 03:47:44;;;;;;;11.02;5.07;;;8.40;99.90;;;;;;4879838;29;20052;-76
2022/04/25 03:50:12;;;;;;;9.70;5.15;;;8.40;99.90;;;;;;4863017;29;20057;-76
2022/04/25 03:52:39;;;;;;;9.15;5.20;;;8.30;99.90;;;;;;4879517;29;20514;-76
2022/04/25 03:57:51;;;;;;;11.02;4.75;;;8.30;99.90;;;;;;4863146;29;20087;-76
2022/04/25 04:00:17;;;;;;;10.77;5.53;;;8.40;99.90;;;;;;4879717;29;20076;-76
2022/04/25 04:02:43;;;;;;;9.55;4.72;;;8.30;99.90;;;;;;4879710;29;20203;-76
2022/04/25 04:05:10;;;;;;;12.30;6.00;;;8.30;99.90;;;;;;4879405;29;20100;-76
2022/04/25 04:07:35;;;;;;;11.70;5.10;;;8.30;99.90;;;;;;4879902;29;20049;-76
2022/04/25 04:10:01;;;;;;;14.13;4.70;;;8.30;99.90;;;;;;4862707;29;20041;-76
2022/04/25 04:12:31;;;;;;;11.15;4.85;;;8.30;99.90;;;;;;4879600;29;20503;-76
2022/04/25 04:14:58;;;;;;;9.52;4.68;;;8.30;99.90;;;;;;4862869;29;20405;-76
2022/04/25 04:17:26;;;;;;;10.23;4.70;;;8.30;99.90;;;;;;4863139;29;20136;-76
2022/04/25 04:19:53;;;;;;;8.23;5.30;;;8.30;99.90;;;;;;4862965;29;20049;-76
2022/04/25 04:22:21;;;;;;;11.35;4.88;;;8.30;99.90;;;;;;4862507;29;20049;-76
2022/04/25 04:24:47;;;;;;;18.98;5.53;;;8.30;99.90;;;;;;4862604;29;20065;-76
2022/04/25 04:27:14;;;;;;;11.85;5.10;;;8.30;99.90;;;;;;4862308;29;20049;-76
2022/04/25 04:29:41;;;;;;;10.32;4.28;;;8.30;99.90;;;;;;4862062;29;20057;-76
2022/04/25 04:32:07;;;;;;;11.57;4.13;;;8.30;99.90;;;;;;4860595;29;20104;-76
2022/04/25 04:34:37;;;;;;;7.93;4.30;;;8.30;99.90;;;;;;4861487;29;20093;-76
2022/04/25 04:37:04;;;;;;;10.90;4.55;;;8.30;99.90;;;;;;4862448;29;20041;-76
2022/04/25 04:39:31;;;;;;;16.60;4.38;;;8.30;99.90;;;;;;4862721;29;20097;-76
2022/04/25 04:41:57;;;;;;;14.27;5.22;;;8.30;99.90;;;;;;4862523;29;20049;-76
2022/04/25 04:44:23;;;;;;;15.50;4.45;;;8.30;99.90;;;;;;4878913;29;20135;-76
2022/04/25 04:46:48;;;;;;;10.18;4.88;;;8.40;99.90;;;;;;4862546;29;20135;-76
2022/04/25 04:49:15;;;;;;;7.40;4.35;;;8.30;99.90;;;;;;4862323;29;20211;-76
2022/04/25 04:51:41;;;;;;;10.45;4.50;;;8.30;99.90;;;;;;4863699;29;20084;-76
2022/04/25 04:54:08;;;;;;;8.20;4.80;;;8.30;99.90;;;;;;4882629;29;20049;-76
2022/04/25 04:56:33;;;;;;;9.55;5.05;;;8.30;99.90;;;;;;4865609;29;20052;-76
2022/04/25 04:58:59;;;;;;;11.85;5.15;;;8.30;99.90;;;;;;4865508;29;20060;-76
2022/04/25 05:01:26;;;;;;;18.05;6.38;;;8.30;99.90;;;;;;4865803;29;20065;-76
2022/04/25 05:03:58;;;;;;;10.10;5.38;;;8.30;99.90;;;;;;4865668;29;20490;-76
2022/04/25 05:06:25;;;;;;;11.95;5.43;;;8.30;99.90;;;;;;4865454;29;20052;-76
2022/04/25 05:08:51;;;;;;;13.15;5.22;;;8.30;99.90;;;;;;4865329;29;20474;-76
2022/04/25 05:11:17;;;;;;;9.68;4.75;;;8.30;99.90;;;;;;4865382;29;20056;-76
2022/04/25 05:13:42;;;;;;;9.77;4.57;;;8.30;99.90;;;;;;4865542;29;20053;-76
2022/04/25 05:16:08;;;;;;;12.63;4.95;;;8.30;99.90;;;;;;4881925;29;20512;-76
2022/04/25 05:18:33;;;;;;;9.63;4.80;;;8.40;99.90;;;;;;4865523;29;20113;-76
2022/04/25 05:21:00;;;;;;;12.18;4.68;;;8.40;99.90;;;;;;4865469;29;20041;-76
2022/04/25 05:23:27;;;;;;;11.43;4.25;;;8.40;99.90;;;;;;4865463;29;20072;-76
2022/04/25 05:25:54;;;;;;;10.93;4.18;;;8.40;99.90;;;;;;4865349;29;20112;-77
2022/04/25 05:28:21;;;;;;;12.60;4.53;;;8.40;99.90;;;;;;4865202;29;20061;-76
2022/04/25 05:30:47;;;;;;;10.30;3.97;;;8.40;99.90;;;;;;4864950;29;20056;-76
2022/04/25 05:33:13;;;;;;;11.57;4.28;;;8.40;99.90;;;;;;4881889;29;20045;-76
2022/04/25 05:35:38;;;;;;;7.38;3.55;;;8.40;99.90;;;;;;4864970;29;20053;-76
2022/04/25 05:38:06;;;;;;;13.45;4.75;;;8.40;99.90;;;;;;4881858;29;20060;-76
2022/04/25 05:40:32;;;;;;;13.98;5.22;;;8.40;99.90;;;;;;4881747;29;20060;-76
2022/04/25 05:43:01;;;;;;;11.43;4.03;;;8.40;99.90;;;;;;4864629;29;20068;-76
2022/04/25 05:45:27;;;;;;;9.98;4.20;;;8.40;99.90;;;;;;4864827;29;20045;-76
2022/04/25 05:47:57;;;;;;;8.90;4.15;;;8.40;99.90;;;;;;4864895;29;20188;-76
2022/04/25 05:53:08;;;;;;;11.43;4.63;;;8.50;99.90;;;;;;4881304;29;20060;-76
2022/04/25 05:55:34;;;;;;;8.57;4.05;;;8.40;99.90;;;;;;4881094;29;20486;-76
2022/04/25 05:58:02;;;;;;;8.15;4.10;;;8.30;99.90;;;;;;4864458;29;20045;-76
2022/04/25 06:00:28;;;;;;;12.88;4.18;;;8.30;99.90;;;;;;4881116;29;20459;-76
2022/04/25 06:02:57;;;;;;;10.00;3.65;;;8.40;99.90;;;;;;4863495;29;20057;-76
2022/04/25 06:05:23;;;;;;;10.55;4.13;;;8.30;99.90;;;;;;4864386;29;20060;-76
2022/04/25 06:07:50;;;;;;;13.55;4.38;;;8.30;99.90;;;;;;4881208;29;20131;-76
2022/04/25 06:10:22;;;;;;;15.82;4.35;;;8.30;99.90;;;;;;4864455;29;20413;-76
2022/04/25 06:12:49;;;;;;;13.02;4.38;;;8.30;99.90;;;;;;4864341;29;20053;-76
2022/04/25 06:15:16;;;;;;;14.88;4.45;;;8.40;99.90;;;;;;4864216;29;20052;-76
2022/04/25 06:17:42;;;;;;;12.02;4.03;;;8.40;99.90;;;;;;4864231;29;20057;-76
2022/04/25 06:20:10;;;;;;;8.43;3.63;;;8.40;99.90;;;;;;4864391;29;20049;-76
2022/04/25 06:22:37;;;;;;;9.32;3.85;;;8.40;99.90;;;;;;4864236;29;20089;-76
2022/04/25 06:25:04;;;;;;;8.68;3.20;;;8.40;99.90;;;;;;4864211;29;20053;-77
2022/04/25 06:27:30;;;;;;;13.38;4.20;;;8.40;99.90;;;;;;4881259;29;20037;-77
2022/04/25 06:29:56;;;;;;;8.13;3.75;;;8.40;99.90;;;;;;4880625;29;20057;-74
2022/04/25 06:32:23;;;;;;;12.15;3.50;;;8.50;99.90;;;;;;4880736;29;20052;-75
2022/04/25 06:34:48;;;;;;;9.98;4.03;;;8.50;99.90;;;;;;4880801;29;20057;-75
2022/04/25 06:37:14;;;;;;;10.63;3.95;;;8.50;99.90;;;;;;4863834;29;20068;-76
2022/04/25 06:39:40;;;;;;;10.65;3.97;;;8.50;99.90;;;;;;4863751;29;20049;-76
2022/04/25 06:42:08;;;;;;;10.40;3.45;;;8.60;99.90;;;;;;4863800;29;20497;-76
2022/04/25 06:44:34;;;;;;;12.68;4.20;;;8.60;99.90;;;;;;4863542;29;20053;-77
2022/04/25 06:47:00;;;;;;;10.35;3.70;;;8.70;99.90;;;;;;4873219;29;20557;-75
2022/04/25 06:49:27;;;;;;;7.13;3.05;;;8.70;99.90;;;;;;4863468;29;20056;-75
2022/04/25 06:51:59;;;;;;;8.75;3.78;;;8.80;99.90;;;;;;4863284;29;20068;-75
2022/04/25 06:54:27;;;;;;;14.00;3.65;;;8.80;99.90;;;;;;4863314;29;20049;-76
2022/04/25 06:56:54;;;;;;;8.32;3.53;;;8.90;99.90;;;;;;4863334;29;20055;-75
2022/04/25 06:59:21;;;;;;;8.23;2.85;;;8.80;99.90;;;;;;4880096;29;20049;-75
2022/04/25 07:01:48;;;;;;;8.05;3.17;;;8.90;99.90;;;;;;4863469;29;20048;-77
2022/04/25 07:04:16;;;;;;;10.93;3.65;;;8.90;99.90;;;;;;4863199;29;20057;-74
2022/04/25 07:06:43;;;;;;;9.25;3.00;;;8.90;99.90;;;;;;4878898;29;20052;-75
2022/04/25 07:09:15;;;;;;;9.80;3.30;;;9.00;99.90;;;;;;4863103;29;20064;-75
2022/04/25 07:11:45;;;;;;;8.00;3.38;;;8.90;99.90;;;;;;4879813;29;20059;-75
2022/04/25 07:14:16;;;;;;;9.20;3.10;;;8.90;99.90;;;;;;4863189;29;20159;-75
2022/04/25 07:16:48;;;;;;;10.38;3.08;;;9.00;99.90;;;;;;4862928;29;20113;-75
2022/04/25 07:19:16;;;;;;;7.78;2.97;;;9.00;99.90;;;;;;4863083;29;20128;-75
2022/04/25 07:29:54;;;;;;;12.18;3.28;;;9.20;99.90;;;;;;4879857;29;20066;-75
2022/04/25 07:32:20;;;;;;;10.98;2.78;;;9.30;99.90;;;;;;4862749;29;20064;-75
2022/04/25 07:34:47;;;;;;;11.25;2.78;;;9.40;99.90;;;;;;4863048;29;20076;-75
2022/04/25 07:37:17;;;;;;;10.10;2.70;;;9.40;99.90;;;;;;4879718;29;20048;-75
2022/04/25 07:39:43;;;;;;;5.57;2.50;;;9.60;99.90;;;;;;4862973;29;20049;-75
2022/04/25 07:42:09;;;;;;;6.43;2.50;;;9.80;99.90;;;;;;4862977;29;20140;-74
2022/04/25 07:44:35;;;;;;;9.85;3.10;;;10.00;99.90;;;;;;4862623;29;20116;-74
2022/04/25 07:47:01;;;;;;;13.50;3.08;;;10.10;99.90;;;;;;4862954;29;20434;-76
2022/04/25 07:49:28;;;;;;;11.60;3.25;;;10.10;99.90;;;;;;4862604;29;20041;-75
2022/04/25 07:51:55;;;;;;;9.32;3.35;;;9.90;99.90;;;;;;4862664;29;20053;-74
2022/04/25 07:54:22;;;;;;;5.45;2.50;;;9.90;99.90;;;;;;4863024;29;20470;-75
2022/04/25 07:56:48;;;;;;;6.45;3.00;;;10.00;99.90;;;;;;4883467;29;20080;-75
2022/04/25 07:59:14;;;;;;;9.00;3.20;;;10.20;99.90;;;;;;4898083;29;20072;-74
2022/04/25 08:01:39;;;;;;;7.68;3.60;;;10.10;99.90;;;;;;4897948;29;20061;-75
2022/04/25 08:04:05;;;;;;;7.53;2.65;;;10.40;99.90;;;;;;4897978;29;20051;-75
2022/04/25 08:06:31;;;;;;;6.90;3.05;;;10.30;99.90;;;;;;4897945;29;20071;-75
2022/04/25 08:08:57;;;;;;;6.35;2.67;;;10.30;99.90;;;;;;4881000;29;20108;-75
2022/04/25 08:11:23;;;;;;;7.57;2.38;;;10.40;99.90;;;;;;4881033;29;20080;-75
2022/04/25 08:19:22;;;;;;;7.28;2.85;;;10.20;99.90;;;;;;4881179;29;20078;-75
2022/04/25 08:21:48;;;;;;;8.88;2.60;;;10.20;99.90;;;;;;4881276;29;20076;-76
2022/04/25 08:24:14;;;;;;;7.07;3.25;;;10.20;99.90;;;;;;4880943;29;20088;-75
2022/04/25 08:26:40;;;;;;;8.10;2.85;;;9.90;99.90;;;;;;4882105;29;20088;-76
2022/04/25 08:29:06;;;;;;;7.90;2.80;;;10.10;99.90;;;;;;4884468;29;20053;-76
2022/04/25 08:31:33;;;;;;;8.13;3.05;;;10.10;99.90;;;;;;4884494;29;20052;-76
2022/04/25 08:34:00;;;;;;;6.28;2.97;;;10.10;99.90;;;;;;4901483;29;20131;-75
2022/04/25 08:36:26;;;;;;;7.85;3.28;;;10.40;99.90;;;;;;4900942;29;20074;-76
2022/04/25 08:38:52;;;;;;;10.52;3.28;;;10.40;99.90;;;;;;4884482;29;20044;-76
2022/04/25 08:41:28;;;;;;;7.63;2.55;;;10.50;99.90;;;;;;4884307;29;20409;-77
2022/04/25 08:43:55;;;;;;;9.45;2.70;;;10.60;99.90;;;;;;4901070;29;20108;-77
2022/04/25 08:46:22;;;;;;;8.05;2.83;;;10.60;99.90;;;;;;4900907;29;20483;-77
2022/04/25 08:48:50;;;;;;;10.05;2.70;;;10.80;99.90;;;;;;4876992;29;20044;-77
2022/04/25 08:51:16;;;;;;;11.13;3.10;;;11.00;99.90;;;;;;4865420;29;20488;-77
2022/04/25 08:53:43;;;;;;;8.93;2.92;;;11.30;99.90;;;;;;4882189;29;20116;-77
2022/04/25 08:56:10;;;;;;;8.40;3.00;;;11.30;99.90;;;;;;4865689;29;20127;-77
2022/04/25 08:58:40;;;;;;;8.82;2.78;;;11.50;99.90;;;;;;4881622;29;20491;-78
2022/04/25 09:01:09;;;;;;;10.25;2.30;;;11.50;99.90;;;;;;4875963;29;20383;-77
2022/04/25 09:03:35;;;;;;;6.45;2.67;;;11.40;99.90;;;;;;4866460;29;20045;-76
2022/04/25 09:06:00;;;;;;;6.57;2.95;;;11.40;99.90;;;;;;4863862;29;20056;-76
2022/04/25 09:08:26;;;;;;;10.00;3.38;;;11.40;99.90;;;;;;4880509;29;20127;-76
2022/04/25 09:12:09;;;;;;;8.20;3.15;;;11.60;99.90;;;;;;4864738;29;20093;-75
2022/04/25 09:13:37;;;;;;;7.68;2.65;;;11.50;99.90;;;;;;4881305;29;20049;-75
2022/04/25 09:16:04;;;;;;;8.15;2.83;;;11.30;99.90;;;;;;4881779;29;20089;-75
2022/04/25 09:18:30;;;;;;;7.30;2.42;;;11.40;99.90;;;;;;4881829;29;20049;-75
2022/04/25 09:20:58;;;;;;;6.10;3.20;;;11.40;99.90;;;;;;4881950;29;20060;-77
2022/04/25 09:23:23;;;;;;;6.47;2.28;;;11.30;99.90;;;;;;4881745;29;20057;-77
2022/04/25 09:26:08;;;;;;;7.55;2.30;;;11.40;99.90;;;;;;4864703;29;20513;-77
2022/04/25 09:28:52;;;;;;;7.30;2.58;;;11.20;99.90;;;;;;4881853;29;20101;-77
2022/04/25 09:31:18;;;;;;;;;;;11.30;99.90;;;;;;4881030;29;20088;-77
2022/04/25 09:33:44;;;;;;;6.38;2.47;;;11.30;99.90;;;;;;4881833;29;19923;-77
2022/04/25 09:36:09;;;;;;;8.25;2.65;;;11.30;99.90;;;;;;4864673;29;20508;-76
2022/04/25 09:38:37;;;;;;;5.68;2.50;;;11.50;99.90;;;;;;4864931;29;20478;-77
2022/04/25 09:41:05;;;;;;;6.38;2.97;;;11.50;99.90;;;;;;4881687;29;20037;-77
2022/04/25 09:43:34;;;;;;;9.25;3.85;;;11.80;99.90;;;;;;4881286;29;20072;-77
2022/04/25 09:46:10;;;;;;;6.88;2.53;;;12.00;99.90;;;;;;4864516;29;20132;-76
2022/04/25 09:48:37;;;;;;;5.70;2.30;;;12.00;99.90;;;;;;4864768;29;20132;-77
2022/04/25 09:51:08;;;;;;;7.40;3.00;;;12.20;99.90;;;;;;4864552;29;20061;-77
2022/04/25 09:53:50;;;;;;;9.82;3.40;;;12.50;99.90;;;;;;4864657;29;20498;-77
2022/04/25 09:56:17;;;;;;;6.35;3.00;;;12.60;99.90;;;;;;4881419;29;20041;-77
2022/04/25 09:58:59;;;;;;;5.75;2.38;;;12.30;99.90;;;;;;4881358;29;20076;-76
2022/04/25 10:01:25;;;;;;;9.15;2.70;;;12.50;99.90;;;;;;4881250;29;20049;-77
2022/04/25 10:03:50;;;;;;;8.48;3.08;;;12.60;99.90;;;;;;4864309;29;20052;-77
2022/04/25 10:06:16;;;;;;;13.55;3.10;;;12.40;99.90;;;;;;4864353;29;20049;-77
2022/04/25 10:08:43;;;;;;;8.80;2.83;;;12.30;99.90;;;;;;4881197;29;20064;-77
2022/04/25 10:11:12;;;;;;;10.45;2.70;;;12.00;99.90;;;;;;4864117;29;20068;-77
2022/04/25 10:13:38;;;;;;;6.65;2.50;;;11.80;99.90;;;;;;4864143;29;20048;-77
2022/04/25 10:16:04;;;;;;;8.00;2.65;;;11.90;99.90;;;;;;4881001;29;20053;-76
2022/04/25 10:18:31;;;;;;;9.13;2.72;;;12.20;99.90;;;;;;4880708;29;20057;-77
2022/04/25 10:20:57;;;;;;;16.70;3.10;;;12.50;99.90;;;;;;4880932;29;20096;-76
2022/04/25 10:23:25;;;;;;;10.80;2.67;;;12.60;99.90;;;;;;4880827;29;20045;-76
2022/04/25 10:25:59;;;;;;;6.68;2.67;;;12.90;99.90;;;;;;4863968;29;20056;-76
2022/04/25 10:28:35;;;;;;;6.55;2.72;;;12.80;99.90;;;;;;4880719;29;20053;-76
2022/04/25 10:31:04;;;;;;;7.88;3.20;;;12.60;99.90;;;;;;4880721;29;20076;-76
2022/04/25 10:33:56;;;;;;;7.82;2.53;;;12.70;99.90;;;;;;4880570;29;20053;-77
2022/04/25 10:36:51;;;;;;;9.90;2.97;;;12.90;99.90;;;;;;4880666;29;20045;-77
2022/04/25 10:39:24;;;;;;;8.52;3.00;;;12.40;99.90;;;;;;4848173;29;20084;-76
2022/04/25 10:44:37;;;;;;;8.18;3.15;;;12.70;99.90;;;;;;4880059;29;20060;-75
2022/04/25 10:47:05;;;;;;;8.93;2.97;;;12.80;99.90;;;;;;4863445;29;20045;-79
2022/04/25 10:49:40;;;;;;;9.02;3.47;;;13.00;99.90;;;;;;4863315;29;20101;-79
2022/04/25 10:52:31;;;;;;;8.57;3.95;;;12.60;99.90;;;;;;4879999;29;20413;-77
2022/04/25 10:55:13;;;;;;;6.13;2.80;;;12.40;99.90;;;;;;4880340;29;20049;-76
2022/04/25 10:58:01;;;;;;;9.63;3.35;;;12.70;99.90;;;;;;4863666;29;20135;-79
2022/04/25 11:00:41;;;;;;;9.27;2.97;;;12.50;99.90;;;;;;4879875;29;20427;-78
2022/04/25 11:03:11;;;;;;;8.52;2.72;;;12.70;99.90;;;;;;4880305;29;20136;-78
2022/04/25 11:05:39;;;;;;;7.13;3.35;;;13.00;99.90;;;;;;4863196;29;20064;-78
2022/04/25 11:08:20;;;;;;;6.90;2.80;;;13.10;99.90;;;;;;4863372;29;20049;-79
2022/04/25 11:10:57;;;;;;;8.10;3.05;;;13.40;99.90;;;;;;4863331;29;20545;-79
2022/04/25 11:13:26;;;;;;;6.72;3.03;;;13.50;99.90;;;;;;4880189;29;20052;-77
2022/04/25 11:16:16;;;;;;;8.65;3.65;;;13.10;99.90;;;;;;4863074;29;20537;-78
2022/04/25 11:18:42;;;;;;;7.53;2.80;;;12.80;99.90;;;;;;4852331;29;20057;-77
2022/04/25 11:21:15;;;;;;;9.55;3.28;;;12.80;99.90;;;;;;4863035;29;20060;-76
2022/04/25 11:23:43;;;;;;;9.35;3.17;;;12.90;99.90;;;;;;4863336;29;20076;-78
2022/04/25 11:26:30;;;;;;;9.00;2.20;;;12.60;99.90;;;;;;4863215;29;20136;-79
2022/04/25 11:29:01;;;;;;;5.35;2.70;;;12.90;99.90;;;;;;4850354;29;20212;-79
2022/04/25 11:31:30;;;;;;;7.18;2.80;;;12.70;99.90;;;;;;4862842;29;20057;-79
2022/04/25 11:34:00;;;;;;;8.38;3.35;;;12.90;99.90;;;;;;4862879;29;20056;-78
2022/04/25 11:36:26;;;;;;;8.23;2.78;;;13.20;99.90;;;;;;4862876;29;20074;-78
2022/04/25 11:41:38;;;;;;;6.97;2.80;;;13.10;99.90;;;;;;4862779;29;20121;-78
2022/04/25 11:44:04;;;;;;;9.35;3.10;;;12.90;99.90;;;;;;4862621;29;20140;-77
2022/04/25 11:46:32;;;;;;;9.45;2.60;;;12.90;99.90;;;;;;4879337;29;20389;-78
2022/04/25 11:48:58;;;;;;;7.03;2.20;;;13.20;99.90;;;;;;4862887;29;20084;-78
2022/04/25 11:51:40;;;;;;;10.20;3.30;;;13.50;99.90;;;;;;4862647;29;20084;-78
2022/04/25 11:54:08;;;;;;;6.63;2.85;;;13.20;99.90;;;;;;4879611;29;20045;-77
2022/04/25 11:56:40;;;;;;;7.03;2.92;;;13.60;99.90;;;;;;4862867;29;20053;-77
2022/04/25 11:59:08;;;;;;;9.63;3.28;;;13.50;99.90;;;;;;4879603;29;20041;-76
2022/04/25 12:01:38;;;;;;;9.13;3.17;;;12.90;99.90;;;;;;4864079;29;20108;-77
2022/04/25 12:04:30;;;;;;;9.20;2.80;;;13.10;99.90;;;;;;4866714;29;20084;-77
2022/04/25 12:07:02;;;;;;;10.68;2.70;;;13.40;99.90;;;;;;4866553;29;20454;-77
2022/04/25 12:15:34;;;;;;;6.75;2.97;;;13.30;99.90;;;;;;4883102;29;20064;-77
2022/04/25 12:18:13;;;;;;;6.57;2.67;;;13.30;99.90;;;;;;4873285;29;20060;-77
2022/04/25 12:20:40;;;;;;;8.07;2.70;;;13.30;99.90;;;;;;4884898;29;20397;-77
2022/04/25 12:23:06;;;;;;;7.60;2.63;;;13.30;99.90;;;;;;4884545;29;20055;-77
2022/04/25 12:25:38;;;;;;;7.30;2.72;;;13.30;99.90;;;;;;4898461;29;20045;-77
2022/04/25 12:28:16;;;;;;;10.10;2.67;;;13.30;99.90;;;;;;4891113;29;20037;-77
2022/04/25 12:30:49;;;;;;;8.68;2.78;;;13.40;99.90;;;;;;4874032;29;20107;-77
2022/04/25 12:33:17;;;;;;;8.73;3.25;;;13.10;99.90;;;;;;4896055;29;20044;-77
2022/04/25 12:35:45;;;;;;;5.85;2.60;;;13.10;99.90;;;;;;4901540;29;20077;-77
2022/04/25 12:38:36;;;;;;;5.78;2.75;;;13.10;99.90;;;;;;4884292;29;20420;-77
2022/04/25 12:41:02;;;;;;;7.30;2.45;;;13.20;99.90;;;;;;4884385;29;20052;-78
2022/04/25 12:43:42;;;;;;;7.55;2.83;;;12.90;99.90;;;;;;4900920;29;20048;-77
2022/04/25 12:46:08;;;;;;;10.30;2.95;;;13.00;99.90;;;;;;4901297;29;20044;-77
2022/04/25 12:49:17;;;;;;;5.68;2.53;;;13.20;99.90;;;;;;4900959;29;20505;-77
2022/04/25 12:51:45;;;;;;;8.88;2.75;;;13.20;99.90;;;;;;4873707;29;20065;-77
2022/04/25 12:54:33;;;;;;;6.57;2.40;;;13.00;99.90;;;;;;4884244;29;20461;-77
2022/04/25 12:57:07;;;;;;;8.25;3.08;;;13.00;99.90;;;;;;4882345;29;20060;-77
2022/04/25 12:59:33;;;;;;;7.57;2.80;;;13.10;99.90;;;;;;4883683;29;20090;-78
2022/04/25 13:02:01;;;;;;;8.80;2.70;;;13.20;99.90;;;;;;4900855;29;20409;-78
2022/04/25 13:04:27;;;;;;;9.95;3.63;;;13.40;99.90;;;;;;4884318;29;20370;-78
2022/04/25 13:06:52;;;;;;;6.95;2.30;;;13.40;99.90;;;;;;4884269;29;20549;-78
2022/04/25 13:09:18;;;;;;;6.53;2.78;;;13.40;99.90;;;;;;4900858;29;20397;-78
2022/04/25 13:11:44;;;;;;;6.80;2.47;;;13.10;99.90;;;;;;4883656;29;20486;-78
2022/04/25 13:14:10;;;;;;;9.23;2.42;;;13.40;99.90;;;;;;4884465;29;20071;-78
2022/04/25 13:16:35;;;;;;;8.02;2.50;;;13.20;99.90;;;;;;4883970;29;20401;-78
2022/04/25 13:19:01;;;;;;;6.20;2.60;;;13.30;99.90;;;;;;4883932;29;20041;-78
2022/04/25 13:21:27;;;;;;;4.35;2.15;;;13.20;99.90;;;;;;4883957;29;20056;-78
2022/04/25 13:23:53;;;;;;;7.15;2.70;;;13.30;99.90;;;;;;4883755;29;20045;-78
2022/04/25 13:26:20;;;;;;;9.77;2.53;;;13.50;99.90;;;;;;4884043;29;20188;-78